createdAt,value
2018-01-10T00:06:12.940Z,85.97
2018-01-10T00:06:53.501Z,85.97
2018-01-10T00:07:34.046Z,85.88
2018-01-10T00:08:14.560Z,86.16
2018-01-10T00:08:55.134Z,85.78
2018-01-10T00:09:35.706Z,85.31
2018-01-10T00:10:16.228Z,85.21
2018-01-10T00:10:56.763Z,85.5
2018-01-10T00:11:37.342Z,84.83
2018-01-10T00:14:02.253Z,85.31
2018-01-10T00:14:42.822Z,85.31
2018-01-10T00:15:23.342Z,85.69
2018-01-10T00:16:03.902Z,85.88
2018-01-10T00:16:44.536Z,85.5
2018-01-10T00:17:25.140Z,86.16
2018-01-10T00:18:05.771Z,85.97
2018-01-10T00:18:46.381Z,86.26
2018-01-10T00:19:26.938Z,86.07
2018-01-10T00:20:07.464Z,85.88
2018-01-10T00:20:48.020Z,86.07
2018-01-10T00:21:28.534Z,86.26
2018-01-10T00:22:09.061Z,86.55
2018-01-10T00:22:49.648Z,87.02
2018-01-10T00:23:30.224Z,87.02
2018-01-10T00:24:10.698Z,87.12
2018-01-10T00:24:51.264Z,86.93
2018-01-10T00:25:32.040Z,86.83
2018-01-10T00:26:12.624Z,86.93
2018-01-10T00:26:53.141Z,87.12
2018-01-10T00:27:34.516Z,87.5
2018-01-10T00:28:15.045Z,86.55
2018-01-10T00:28:55.671Z,87.6
2018-01-10T00:29:36.133Z,87.69
2018-01-10T00:30:16.715Z,87.21
2018-01-10T00:30:57.221Z,87.12
2018-01-10T00:31:37.965Z,87.6
2018-01-10T00:32:18.664Z,87.31
2018-01-10T00:32:59.240Z,87.4
2018-01-10T00:33:39.759Z,87.31
2018-01-10T00:34:20.315Z,87.12
2018-01-10T00:35:00.820Z,87.5
2018-01-10T00:35:41.972Z,87.21
2018-01-10T00:36:22.530Z,87.21
2018-01-10T00:37:03.000Z,87.31
2018-01-10T00:37:43.591Z,87.5
2018-01-10T00:38:24.106Z,87.21
2018-01-10T00:39:04.675Z,87.4
2018-01-10T00:39:45.222Z,87.65
2018-01-10T00:40:25.792Z,87.69
2018-01-10T00:41:06.392Z,87.46
2018-01-10T00:41:46.954Z,87.55
2018-01-10T00:42:27.501Z,87.17
2018-01-10T00:43:08.110Z,87.31
2018-01-10T00:43:48.606Z,87.21
2018-01-10T00:44:29.146Z,87.5
2018-01-10T00:45:09.671Z,87.69
2018-01-10T00:45:50.214Z,87.5
2018-01-10T00:46:30.811Z,87.21
2018-01-10T00:47:14.319Z,87.12
2018-01-10T00:48:20.882Z,86.88
2018-01-10T00:49:02.078Z,87.31
2018-01-10T00:50:04.600Z,87.21
2018-01-10T00:50:52.194Z,87.5
2018-01-10T00:51:34.072Z,86.93
2018-01-10T00:53:12.292Z,87.02
2018-01-10T00:55:07.385Z,86.45
2018-01-10T00:55:59.753Z,86.55
2018-01-10T00:56:54.451Z,86.93
2018-01-10T00:57:44.744Z,86.45
2018-01-10T00:58:34.581Z,86.65
2018-01-10T00:59:29.062Z,86.26
2018-01-10T01:00:23.210Z,86.26
2018-01-10T01:01:10.516Z,86.45
2018-01-10T01:02:01.390Z,86.26
2018-01-10T01:04:10.569Z,86.36
2018-01-10T01:04:55.072Z,87.02
2018-01-10T01:07:56.992Z,86.26
2018-01-10T01:15:22.461Z,85.6
2018-01-10T01:16:15.594Z,86.07
2018-01-10T01:17:02.087Z,85.78
2018-01-10T01:17:42.579Z,85.88
2018-01-10T01:18:23.138Z,85.6
2018-01-10T01:19:03.730Z,85.6
2018-01-10T01:19:44.256Z,85.93
2018-01-10T01:20:24.789Z,85.73
2018-01-10T01:21:05.327Z,85.35
2018-01-10T01:21:45.859Z,85.16
2018-01-10T01:22:26.554Z,85.21
2018-01-10T01:36:48.951Z,85.83
2018-01-10T01:40:59.770Z,86.36
2018-01-10T01:41:44.535Z,87.02
2018-01-10T01:45:26.960Z,87.02
2018-01-10T01:47:30.775Z,86.59
2018-01-10T01:48:19.162Z,86.07
2018-01-10T01:52:41.308Z,87.07
2018-01-10T01:53:32.131Z,86.78
2018-01-10T01:59:00.549Z,86.93
2018-01-10T02:00:38.593Z,87.02
2018-01-10T02:01:32.541Z,87.12
2018-01-10T02:15:56.266Z,87.5
2018-01-10T02:21:46.368Z,87.31
2018-01-10T02:23:28.890Z,88.26
2018-01-10T02:25:58.377Z,88.26
2018-01-10T02:29:28.139Z,87.69
2018-01-10T02:34:53.866Z,88.07
2018-01-10T02:35:47.358Z,87.98
2018-01-10T02:42:41.412Z,87.31
2018-01-10T02:44:44.418Z,87.6
2018-01-10T02:47:02.811Z,87.26
2018-01-10T02:51:25.864Z,87.12
2018-01-10T02:53:58.115Z,87.16
2018-01-10T02:54:51.662Z,87.21
2018-01-10T02:57:17.007Z,87.21
2018-01-10T03:01:05.159Z,87.5
2018-01-10T03:01:55.172Z,87.88
2018-01-10T03:04:19.555Z,87.69
2018-01-10T03:11:35.097Z,87.31
2018-01-10T03:14:31.683Z,88.26
2018-01-10T03:18:46.849Z,88.36
2018-01-10T03:22:07.587Z,87.79
2018-01-10T03:31:58.526Z,88.26
2018-01-10T03:32:45.533Z,88.36
2018-01-10T03:36:57.672Z,87.79
2018-01-10T03:42:45.889Z,87.69
2018-01-10T03:49:41.338Z,87.21
2018-01-10T03:54:11.576Z,87.5
2018-01-10T03:56:12.321Z,87.4
2018-01-10T03:57:03.697Z,87.31
2018-01-10T03:57:43.419Z,87.4
2018-01-10T03:58:24.043Z,87.5
2018-01-10T03:59:04.550Z,87.6
2018-01-10T03:59:45.294Z,87.6
2018-01-10T04:00:25.893Z,87.4
2018-01-10T04:01:08.165Z,87.4
2018-01-10T05:19:16.362Z,88.45
2018-01-10T06:02:19.397Z,87.12
2018-01-10T06:24:31.843Z,89.4
2018-01-10T06:26:33.415Z,89.89
2018-01-10T06:28:23.699Z,90.08
2018-01-10T06:29:13.462Z,89.22
2018-01-10T06:47:01.478Z,90.26
2018-01-10T06:52:51.818Z,88.64
2018-01-10T06:56:31.091Z,88.45
2018-01-10T07:05:24.603Z,88.17
2018-01-10T07:13:27.577Z,99.99
2018-01-10T07:14:11.592Z,99.99
2018-01-10T07:59:09.100Z,86.49
2018-01-10T07:59:51.825Z,86.59
2018-01-10T08:00:32.231Z,88.31
2018-01-10T08:16:01.292Z,96.84
2018-01-10T08:19:26.180Z,97.32
2018-01-10T08:28:14.995Z,95.12
2018-01-10T08:29:03.465Z,92.46
2018-01-10T08:29:52.955Z,89.78
2018-01-10T08:30:41.379Z,87.49
2018-01-10T08:31:31.525Z,87.49
2018-01-10T08:39:16.390Z,95.41
2018-01-10T08:43:13.263Z,85.39
2018-01-10T08:58:19.697Z,82.95
2018-01-10T08:59:08.314Z,82.57
2018-01-10T08:59:57.416Z,82.76
2018-01-10T09:05:42.274Z,82.86
2018-01-10T09:06:32.059Z,87.29
2018-01-10T09:07:21.733Z,89.11
2018-01-10T09:12:16.724Z,90.83
2018-01-10T09:20:46.328Z,82.52
2018-01-10T09:21:36.492Z,83.57
2018-01-10T09:22:26.149Z,83
2018-01-10T09:23:13.866Z,82.14
2018-01-10T09:24:02.975Z,82.9
2018-01-10T09:26:07.797Z,93.79
2018-01-10T09:26:56.907Z,91.5
2018-01-10T09:27:45.262Z,93.5
2018-01-10T09:28:33.930Z,93.21
2018-01-10T09:29:25.733Z,93.5
2018-01-10T09:30:15.176Z,92.55
2018-01-10T09:31:04.105Z,91.21
2018-01-10T09:33:37.334Z,82.71
2018-01-10T09:37:57.467Z,87.48
2018-01-10T09:40:06.382Z,91.64
2018-01-10T09:46:22.771Z,81.32
2018-01-10T09:48:13.298Z,80.36
2018-01-10T09:49:02.339Z,79.5
2018-01-10T09:49:50.644Z,79.12
2018-01-10T09:50:39.594Z,78.36
2018-01-10T09:51:29.088Z,79.12
2018-01-10T09:52:17.543Z,78.45
2018-01-10T09:53:13.445Z,81.13
2018-01-10T09:58:31.157Z,89.92
2018-01-10T10:02:45.058Z,80.93
2018-01-10T10:03:34.491Z,80.74
2018-01-10T10:07:23.296Z,81.41
2018-01-10T10:09:04.503Z,85.71
2018-01-10T10:11:02.671Z,85.52
2018-01-10T10:11:55.978Z,85.62
2018-01-10T10:14:00.293Z,80.07
2018-01-10T10:14:54.908Z,78.93
2018-01-10T10:18:53.981Z,76.82
2018-01-10T10:19:46.428Z,76.45
2018-01-10T10:23:21.651Z,76.25
2018-01-10T10:24:11.451Z,74.34
2018-01-10T10:25:03.169Z,75.1
2018-01-10T10:25:49.569Z,76.25
2018-01-10T10:29:19.580Z,77.78
2018-01-10T10:32:58.812Z,86.38
2018-01-10T10:33:47.766Z,84.95
2018-01-10T10:35:45.738Z,87.15
2018-01-10T10:36:35.153Z,85.81
2018-01-10T10:37:26.075Z,90.11
2018-01-10T10:38:16.064Z,90.97
2018-01-10T10:39:04.613Z,86.38
2018-01-10T10:39:54.451Z,83.13
2018-01-10T10:45:03.976Z,85.14
2018-01-10T10:49:24.857Z,89.63
2018-01-10T10:59:42.717Z,75.3
2018-01-10T11:01:20.846Z,85.42
2018-01-10T11:02:09.474Z,91.39
2018-01-10T11:02:59.287Z,91.49
2018-01-10T11:04:52.215Z,90.44
2018-01-10T11:08:58.334Z,88.1
2018-01-10T11:18:07.508Z,84.95
2018-01-10T11:20:08.585Z,96.42
2018-01-10T11:20:57.683Z,94.89
2018-01-10T11:26:10.340Z,81.89
2018-01-10T11:28:16.219Z,81.41
2018-01-10T11:35:14.515Z,79.79
2018-01-10T11:36:08.269Z,80.84
2018-01-10T11:38:07.360Z,81.22
2018-01-10T11:38:58.614Z,81.79
2018-01-10T11:40:38.683Z,82.56
2018-01-10T11:42:27.629Z,88.29
2018-01-10T11:43:13.079Z,90.11
2018-01-10T11:46:55.113Z,90.97
2018-01-10T11:47:58.450Z,85.71
2018-01-10T11:51:41.469Z,85.05
2018-01-10T11:53:37.987Z,81.22
2018-01-10T11:55:40.487Z,81.13
2018-01-10T12:00:23.849Z,81.22
2018-01-10T12:02:42.151Z,86.76
2018-01-10T12:09:30.035Z,76.03
2018-01-10T12:16:08.941Z,92.02
2018-01-10T12:19:34.341Z,82.28
2018-01-10T12:27:09.348Z,75.83
2018-01-10T12:28:59.076Z,76.54
2018-01-10T12:29:48.708Z,75.78
2018-01-10T12:30:38.202Z,76.73
2018-01-10T12:33:28.368Z,76.35
2018-01-10T12:34:19.200Z,76.4
2018-01-10T12:35:12.649Z,76.03
2018-01-10T12:39:11.170Z,78.16
2018-01-10T12:43:00.284Z,76.82
2018-01-10T12:45:47.457Z,76.73
2018-01-10T12:49:24.400Z,76.77
2018-01-10T12:50:13.192Z,77.25
2018-01-10T12:51:01.851Z,76.57
2018-01-10T12:51:51.395Z,76.39
2018-01-10T12:52:39.387Z,75.62
2018-01-10T12:53:28.694Z,74.66
2018-01-10T12:54:17.638Z,73.9
2018-01-10T12:55:06.899Z,73.61
2018-01-10T12:55:55.599Z,73.29
2018-01-10T12:56:44.160Z,73.48
2018-01-10T12:57:33.557Z,73.67
2018-01-10T12:58:23.392Z,73.67
2018-01-10T13:03:02.075Z,75.62
2018-01-10T13:03:48.600Z,75.62
2018-01-10T13:04:47.965Z,74.57
2018-01-10T13:08:01.142Z,74.57
2018-01-10T13:08:49.227Z,74.44
2018-01-10T13:10:48.718Z,74.53
2018-01-10T13:11:37.445Z,75.59
2018-01-10T13:13:26.559Z,75.49
2018-01-10T13:21:21.761Z,75.78
2018-01-10T13:22:10.462Z,75.01
2018-01-10T13:24:12.262Z,75.87
2018-01-10T13:25:00.743Z,75.78
2018-01-10T13:25:51.878Z,76.35
2018-01-10T13:26:43.308Z,76.35
2018-01-10T13:27:35.631Z,75.49
2018-01-10T13:28:17.632Z,76.54
2018-01-10T13:41:51.989Z,76.31
2018-01-10T13:42:41.856Z,76.73
2018-01-10T13:44:42.504Z,76.4
2018-01-10T13:49:45.629Z,77.01
2018-01-10T13:51:34.546Z,77.3
2018-01-10T13:52:24.723Z,77.4
2018-01-10T13:53:16.547Z,76.82
2018-01-10T13:56:44.445Z,76.73
2018-01-10T13:57:34.923Z,76.35
2018-01-10T13:58:21.390Z,75.68
2018-01-10T14:00:51.701Z,76.64
2018-01-10T14:01:40.414Z,76.25
2018-01-10T14:02:29.746Z,76.12
2018-01-10T14:04:30.769Z,75.3
2018-01-10T14:24:07.590Z,76.6
2018-01-10T14:25:48.638Z,75.74
2018-01-10T14:26:42.163Z,75.64
2018-01-10T14:30:33.636Z,76.31
2018-01-10T14:34:32.367Z,77.17
2018-01-10T14:35:20.223Z,76.88
2018-01-10T15:05:23.210Z,76.94
2018-01-10T15:12:53.347Z,77.42
2018-01-10T15:15:50.353Z,76.56
2018-01-10T15:18:00.849Z,77.13
2018-01-10T15:18:56.642Z,76.84
2018-01-10T15:19:45.579Z,76.56
2018-01-10T15:29:22.994Z,75.7
2018-01-10T15:32:09.196Z,75.7
2018-01-10T15:32:50.577Z,75.6
2018-01-10T15:33:31.226Z,75.51
2018-01-10T15:34:11.885Z,75.42
2018-01-10T16:20:13.923Z,74.93
2018-01-10T17:28:17.964Z,75.57
2018-01-10T17:28:59.031Z,75.85
2018-01-10T17:29:39.654Z,76.42
2018-01-10T17:30:20.554Z,76.71
2018-01-10T17:31:01.084Z,76.9
2018-01-10T17:31:42.258Z,76.62
2018-01-10T17:32:22.246Z,77.67
2018-01-10T17:33:02.776Z,76.62
2018-01-10T17:33:43.290Z,76.04
2018-01-10T17:34:23.843Z,76.33
2018-01-10T17:35:04.356Z,76.9
2018-01-10T17:35:44.978Z,76.81
2018-01-10T17:36:25.530Z,77.57
2018-01-10T17:37:06.040Z,77.86
2018-01-10T17:37:46.560Z,77.57
2018-01-10T17:38:27.124Z,78.05
2018-01-10T17:39:07.702Z,77.86
2018-01-10T17:39:48.167Z,77.86
2018-01-10T17:40:28.813Z,77
2018-01-10T17:41:09.425Z,77.19
2018-01-10T17:41:49.952Z,77.09
2018-01-10T17:42:30.476Z,77
2018-01-10T17:43:11.121Z,76.71
2018-01-10T17:43:51.645Z,77
2018-01-10T17:44:32.184Z,76.81
2018-01-10T17:45:12.719Z,77
2018-01-10T17:45:53.226Z,77.28
2018-01-10T17:46:33.776Z,77.38
2018-01-10T17:47:14.324Z,76.71
2018-01-10T17:47:54.865Z,77.38
2018-01-10T17:48:35.447Z,76.9
2018-01-10T17:49:15.986Z,77.19
2018-01-10T17:49:56.543Z,77.76
2018-01-10T17:50:37.101Z,77.47
2018-01-10T17:51:17.776Z,77.67
2018-01-10T17:51:58.284Z,78.43
2018-01-10T17:52:38.900Z,78.33
2018-01-10T17:53:19.470Z,78.14
2018-01-10T17:53:59.971Z,78.14
2018-01-10T17:54:40.495Z,78.33
2018-01-10T17:55:21.064Z,78.14
2018-01-10T17:56:01.625Z,78.23
2018-01-10T17:56:42.140Z,77.95
2018-01-10T17:57:22.699Z,77.95
2018-01-10T17:58:03.204Z,77.95
2018-01-10T17:58:43.784Z,78.81
2018-01-10T17:59:24.340Z,77.86
2018-01-10T18:00:04.861Z,78.72
2018-01-10T18:00:45.375Z,79.1
2018-01-10T18:01:25.903Z,78.43
2018-01-10T18:02:06.536Z,78.43
2018-01-10T18:02:47.135Z,78.33
2018-01-10T18:03:27.647Z,78.23
2018-01-10T18:04:08.182Z,78.43
2018-01-10T18:04:48.739Z,78.23
2018-01-10T18:05:29.235Z,79.1
2018-01-10T18:06:09.784Z,78.91
2018-01-10T18:06:50.328Z,79
2018-01-10T18:07:30.933Z,78.91
2018-01-10T18:08:11.446Z,79.48
2018-01-10T18:08:52.016Z,79
2018-01-10T18:09:32.533Z,79.28
2018-01-10T18:10:13.173Z,79.67
2018-01-10T18:10:53.646Z,79.28
2018-01-10T18:11:34.223Z,79.28
2018-01-10T18:12:14.736Z,79.67
2018-01-10T18:12:55.374Z,79.86
2018-01-10T18:13:36.042Z,80.62
2018-01-10T18:14:17.523Z,81.29
2018-01-10T18:14:58.315Z,81.29
2018-01-10T18:15:39.055Z,80.91
2018-01-10T18:16:19.594Z,81.01
2018-01-10T18:17:00.119Z,80.91
2018-01-10T18:17:40.673Z,81.01
2018-01-10T18:18:21.203Z,81.01
2018-01-10T18:19:01.775Z,81.48
2018-01-10T18:19:42.283Z,81.58
2018-01-10T18:20:22.873Z,81.48
2018-01-10T18:21:03.341Z,81.67
2018-01-10T18:21:43.945Z,82.15
2018-01-10T18:22:24.464Z,82.72
2018-01-10T18:23:05.016Z,82.82
2018-01-10T18:23:45.509Z,82.53
2018-01-10T18:24:26.048Z,82.63
2018-01-10T18:25:06.602Z,83.11
2018-01-10T18:25:47.121Z,82.63
2018-01-10T18:26:27.634Z,83.11
2018-01-10T18:27:08.160Z,83.29
2018-01-10T18:27:48.693Z,83.77
2018-01-10T18:28:29.259Z,83.29
2018-01-10T18:29:09.809Z,83.48
2018-01-10T18:29:50.334Z,83.11
2018-01-10T18:30:30.891Z,83.2
2018-01-10T18:31:11.419Z,83.39
2018-01-10T18:31:51.991Z,83.01
2018-01-10T18:32:32.527Z,83.39
2018-01-10T18:33:13.463Z,83.48
2018-01-10T18:35:26.949Z,84.25
2018-01-10T18:36:07.916Z,84.44
2018-01-10T18:36:48.583Z,84.63
2018-01-10T18:37:29.119Z,84.16
2018-01-10T18:38:09.678Z,84.25
2018-01-10T18:38:50.296Z,84.16
2018-01-10T18:39:30.898Z,84.44
2018-01-10T18:40:11.633Z,84.34
2018-01-10T18:40:52.595Z,84.34
2018-01-10T18:41:33.120Z,83.67
2018-01-10T18:42:13.893Z,84.34
2018-01-10T18:42:54.368Z,83.87
2018-01-10T18:43:34.974Z,83.48
2018-01-10T18:44:15.669Z,83.2
2018-01-10T18:44:56.719Z,83.2
2018-01-10T18:45:37.327Z,83.2
2018-01-10T18:46:17.950Z,83.58
2018-01-10T18:46:58.696Z,83.58
2018-01-10T18:47:39.516Z,84.06
2018-01-10T18:48:20.188Z,83.96
2018-01-10T18:49:00.813Z,83.96
2018-01-10T18:49:41.568Z,83.67
2018-01-10T18:50:21.997Z,83.67
2018-01-10T18:51:02.524Z,84.25
2018-01-10T18:51:43.338Z,84.44
2018-01-10T18:52:23.774Z,84.44
2018-01-10T18:53:04.329Z,83.67
2018-01-10T18:53:44.937Z,83.67
2018-01-10T18:54:25.528Z,83.87
2018-01-10T18:55:06.165Z,83.67
2018-01-10T18:55:46.780Z,84.06
2018-01-10T18:56:27.382Z,83.77
2018-01-10T18:57:07.872Z,84.34
2018-01-10T18:57:48.511Z,84.44
2018-01-10T18:58:29.084Z,84.72
2018-01-10T18:59:10.134Z,84.92
2018-01-10T18:59:50.362Z,84.82
2018-01-10T19:00:30.833Z,85.01
2018-01-10T19:01:11.393Z,85.68
2018-01-10T19:01:51.968Z,85.49
2018-01-10T19:02:32.704Z,85.58
2018-01-10T19:03:13.283Z,85.01
2018-01-10T19:03:53.828Z,85.3
2018-01-10T19:04:34.350Z,85.77
2018-01-10T19:05:14.924Z,85.68
2018-01-10T19:05:55.507Z,85.68
2018-01-10T19:06:36.050Z,85.39
2018-01-10T19:07:16.588Z,85.97
2018-01-10T19:07:57.131Z,85.87
2018-01-10T19:08:37.681Z,86.06
2018-01-10T19:09:18.248Z,85.58
2018-01-10T19:09:58.822Z,85.3
2018-01-10T19:10:39.487Z,85.3
2018-01-10T19:11:20.046Z,85.3
2018-01-10T19:12:00.606Z,85.49
2018-01-10T19:12:41.112Z,85.21
2018-01-10T19:13:21.691Z,85.49
2018-01-10T19:14:02.191Z,85.58
2018-01-10T19:14:42.741Z,85.11
2018-01-10T19:15:23.312Z,85.01
2018-01-10T19:16:03.866Z,85.01
2018-01-10T19:16:44.400Z,84.92
2018-01-10T19:17:24.933Z,85.01
2018-01-10T19:18:05.536Z,85.39
2018-01-10T19:18:46.034Z,85.39
2018-01-10T19:19:26.574Z,85.87
2018-01-10T19:20:07.085Z,85.77
2018-01-10T19:20:47.654Z,85.87
2018-01-10T19:21:28.196Z,85.77
2018-01-10T19:22:08.690Z,86.54
2018-01-10T19:22:49.216Z,85.97
2018-01-10T19:23:29.822Z,85.77
2018-01-10T19:24:10.375Z,85.77
2018-01-10T19:24:50.911Z,85.97
2018-01-10T19:25:31.412Z,85.49
2018-01-10T19:26:12.081Z,85.68
2018-01-10T19:26:52.575Z,85.21
2018-01-10T19:27:33.112Z,85.39
2018-01-10T19:28:13.682Z,85.49
2018-01-10T19:28:54.241Z,85.3
2018-01-10T19:29:34.785Z,85.11
2018-01-10T19:30:15.343Z,85.58
2018-01-10T19:30:55.933Z,85.87
2018-01-10T19:31:36.524Z,84.82
2018-01-10T19:32:17.037Z,85.11
2018-01-10T19:32:57.589Z,85.97
2018-01-10T19:33:38.178Z,85.77
2018-01-10T19:34:18.708Z,85.87
2018-01-10T19:34:59.280Z,85.77
2018-01-10T19:35:39.812Z,85.87
2018-01-10T19:36:20.348Z,85.68
2018-01-10T19:37:00.854Z,85.21
2018-01-10T19:37:41.420Z,85.68
2018-01-10T19:38:21.976Z,85.58
2018-01-10T19:39:02.485Z,85.05
2018-01-10T19:39:43.045Z,85.01
2018-01-10T19:40:23.658Z,85.11
2018-01-10T19:41:04.169Z,85.01
2018-01-10T19:41:44.720Z,84.82
2018-01-10T19:42:25.316Z,84.86
2018-01-10T19:43:05.880Z,84.44
2018-01-10T19:43:46.412Z,84.34
2018-01-10T19:44:27.032Z,84.92
2018-01-10T19:45:07.520Z,84.72
2018-01-10T19:45:48.072Z,84.82
2018-01-10T19:46:28.664Z,85.01
2018-01-10T19:47:09.213Z,85.49
2018-01-10T19:47:49.801Z,85.77
2018-01-10T19:48:30.305Z,85.87
2018-01-10T19:49:10.856Z,86.06
2018-01-10T19:49:51.398Z,86.25
2018-01-10T19:50:31.954Z,85.87
2018-01-10T19:51:12.430Z,85.87
2018-01-10T19:51:53.013Z,86.63
2018-01-10T19:52:33.584Z,85.87
2018-01-10T19:53:14.064Z,86.25
2018-01-10T19:53:54.660Z,86.06
2018-01-10T19:54:36.234Z,86.16
2018-01-10T19:55:16.038Z,86.25
2018-01-10T19:55:56.573Z,86.63
2018-01-10T19:56:37.172Z,86.63
2018-01-10T19:57:17.727Z,86.63
2018-01-10T19:57:58.240Z,86.82
2018-01-10T19:58:38.878Z,86.73
2018-01-10T19:59:19.365Z,86.92
2018-01-10T19:59:59.941Z,87.11
2018-01-10T20:00:40.572Z,87.3
2018-01-10T20:01:21.091Z,86.44
2018-01-10T20:02:01.639Z,86.63
2018-01-10T20:02:42.205Z,86.54
2018-01-10T20:03:22.862Z,86.44
2018-01-10T20:04:03.383Z,86.54
2018-01-10T20:04:44.080Z,86.54
2018-01-10T20:05:24.810Z,86.54
2018-01-10T20:06:05.990Z,86.06
2018-01-10T20:06:46.942Z,86.35
2018-01-10T20:07:27.916Z,86.25
2018-01-10T20:08:09.373Z,85.97
2018-01-10T20:08:49.824Z,86.54
2018-01-10T20:09:30.460Z,86.73
2018-01-10T20:10:11.980Z,86.73
2018-01-10T20:10:54.069Z,86.73
2018-01-10T20:11:35.478Z,86.54
2018-01-10T20:12:17.918Z,85.97
2018-01-10T20:12:59.782Z,86.54
2018-01-10T20:13:41.158Z,86.73
2018-01-10T20:14:23.271Z,86.06
2018-01-10T20:15:04.891Z,86.49
2018-01-10T20:15:45.150Z,86.73
2018-01-10T20:16:26.013Z,86.73
2018-01-10T20:17:06.798Z,86.44
2018-01-10T20:17:48.412Z,86.63
2018-01-10T20:18:30.993Z,86.54
2018-01-10T20:19:11.496Z,85.97
2018-01-10T20:19:54.037Z,86.49
2018-01-10T20:20:36.553Z,86.92
2018-01-10T20:21:18.885Z,86.59
2018-01-10T20:22:00.962Z,86.44
2018-01-10T20:22:42.117Z,86.54
2018-01-10T20:23:22.875Z,86.54
2018-01-10T20:24:03.455Z,86.54
2018-01-10T20:24:44.022Z,86.44
2018-01-10T20:25:24.524Z,86.63
2018-01-10T20:26:05.154Z,86.16
2018-01-10T20:26:45.746Z,86.16
2018-01-10T20:27:26.263Z,86.63
2018-01-10T20:28:07.045Z,86.54
2018-01-10T20:28:47.591Z,86.44
2018-01-10T20:29:28.131Z,86.63
2018-01-10T20:30:08.679Z,86.73
2018-01-10T20:30:49.226Z,86.92
2018-01-10T20:31:29.778Z,86.73
2018-01-10T20:32:10.338Z,86.92
2018-01-10T20:32:51.070Z,86.54
2018-01-10T20:33:31.608Z,86.82
2018-01-10T20:34:12.129Z,86.63
2018-01-10T20:34:52.708Z,86.54
2018-01-10T20:35:33.239Z,86.16
2018-01-10T20:36:13.803Z,86.54
2018-01-10T20:36:54.328Z,86.44
2018-01-10T20:37:34.851Z,85.77
2018-01-10T20:38:15.397Z,86.16
2018-01-10T20:38:55.923Z,86.25
2018-01-10T20:39:36.483Z,86.16
2018-01-10T20:40:17.060Z,85.49
2018-01-10T20:40:57.604Z,85.97
2018-01-10T20:41:38.345Z,86.06
2018-01-10T20:42:18.885Z,86.06
2018-01-10T20:42:59.392Z,85.97
2018-01-10T20:43:39.983Z,85.73
2018-01-10T20:44:20.497Z,85.73
2018-01-10T20:45:01.047Z,86.21
2018-01-10T20:45:41.659Z,86.3
2018-01-10T20:46:22.193Z,86.21
2018-01-10T20:47:02.789Z,86.3
2018-01-10T20:47:43.294Z,86.49
2018-01-10T20:48:23.858Z,86.21
2018-01-10T20:49:04.440Z,85.93
2018-01-10T20:49:44.984Z,86.3
2018-01-10T20:50:25.549Z,86.11
2018-01-10T20:51:06.102Z,86.3
2018-01-10T20:51:46.640Z,86.49
2018-01-10T20:52:27.856Z,86.4
2018-01-10T20:53:08.763Z,86.4
2018-01-10T20:53:50.310Z,86.49
2018-01-10T20:54:30.756Z,86.11
2018-01-10T20:55:11.762Z,86.44
2018-01-10T20:55:52.814Z,86.49
2018-01-10T20:56:33.371Z,85.87
2018-01-10T20:57:14.295Z,86.35
2018-01-10T20:57:54.802Z,85.58
2018-01-10T20:58:35.351Z,85.87
2018-01-10T20:59:15.941Z,85.3
2018-01-10T20:59:56.599Z,85.68
2018-01-10T21:00:37.150Z,85.39
2018-01-10T21:01:17.746Z,85.39
2018-01-10T21:01:58.335Z,85.3
2018-01-10T21:03:13.996Z,85.83
2018-01-10T21:03:54.524Z,85.35
2018-01-10T21:04:35.115Z,85.25
2018-01-10T21:05:15.655Z,86.02
2018-01-10T21:05:56.278Z,85.97
2018-01-10T21:06:36.876Z,85.87
2018-01-10T21:07:17.420Z,85.87
2018-01-10T21:07:57.937Z,85.49
2018-01-10T21:08:38.516Z,85.35
2018-01-10T21:09:19.071Z,85.58
2018-01-10T21:09:59.657Z,85.39
2018-01-10T21:10:40.267Z,85.68
2018-01-10T21:11:20.711Z,85.3
2018-01-10T21:12:01.241Z,85.73
2018-01-10T21:12:41.817Z,85.35
2018-01-10T21:13:22.381Z,85.3
2018-01-10T21:14:02.925Z,85.25
2018-01-10T21:14:43.580Z,85.93
2018-01-10T21:15:24.088Z,85.83
2018-01-10T21:16:04.703Z,85.73
2018-01-10T21:16:45.243Z,86.21
2018-01-10T21:17:25.757Z,86.49
2018-01-10T21:18:06.320Z,86.49
2018-01-10T21:18:46.841Z,85.83
2018-01-10T21:19:27.476Z,86.21
2018-01-10T21:20:07.994Z,86.02
2018-01-10T21:20:48.530Z,85.93
2018-01-10T21:21:29.234Z,86.49
2018-01-10T21:22:09.831Z,86.49
2018-01-10T21:22:50.363Z,86.88
2018-01-10T21:23:30.905Z,86.49
2018-01-10T21:24:11.549Z,86.59
2018-01-10T21:24:52.002Z,86.49
2018-01-10T21:25:32.700Z,86.59
2018-01-10T21:26:13.233Z,86.78
2018-01-10T21:26:53.813Z,86.4
2018-01-10T21:27:34.362Z,86.3
2018-01-10T21:28:14.926Z,86.59
2018-01-10T21:28:55.435Z,87.26
2018-01-10T21:29:35.995Z,86.78
2018-01-10T21:30:16.578Z,87.16
2018-01-10T21:30:57.416Z,87.35
2018-01-10T21:31:37.972Z,87.35
2018-01-10T21:32:18.518Z,87.54
2018-01-10T21:32:59.125Z,86.98
2018-01-10T21:33:39.760Z,87.45
2018-01-10T21:34:20.272Z,87.07
2018-01-10T21:35:00.809Z,87.16
2018-01-10T21:35:41.354Z,86.98
2018-01-10T21:36:21.917Z,87.35
2018-01-10T21:37:02.578Z,86.98
2018-01-10T21:37:43.346Z,87.26
2018-01-10T21:38:23.935Z,87.26
2018-01-10T21:39:04.511Z,86.78
2018-01-10T21:39:45.051Z,86.4
2018-01-10T21:40:25.616Z,86.4
2018-01-10T21:41:06.155Z,86.49
2018-01-10T21:41:46.695Z,86.78
2018-01-10T21:42:27.272Z,86.49
2018-01-10T21:43:07.837Z,86.49
2018-01-10T21:43:48.402Z,86.49
2018-01-10T21:44:31.433Z,86.98
2018-01-10T21:45:12.037Z,86.49
2018-01-10T21:45:52.617Z,86.49
2018-01-10T21:46:33.107Z,86.69
2018-01-10T21:47:13.806Z,86.78
2018-01-10T21:47:54.298Z,87.07
2018-01-10T21:48:34.916Z,87.16
2018-01-10T21:49:15.524Z,87.16
2018-01-10T21:49:56.103Z,86.74
2018-01-10T21:50:36.630Z,86.78
2018-01-10T21:51:17.167Z,86.88
2018-01-10T21:51:57.747Z,86.74
2018-01-10T21:52:38.297Z,87.5
2018-01-10T21:53:18.831Z,87.21
2018-01-10T21:53:59.366Z,87.45
2018-01-10T21:54:40.336Z,87.12
2018-01-10T21:55:20.966Z,86.78
2018-01-10T21:56:01.508Z,86.78
2018-01-10T21:56:42.123Z,86.88
2018-01-10T21:57:22.811Z,86.98
2018-01-10T21:58:03.760Z,87.07
2018-01-10T21:58:44.775Z,86.59
2018-01-10T21:59:25.511Z,86.4
2018-01-10T22:00:07.297Z,86.11
2018-01-10T22:00:48.455Z,86.4
2018-01-10T22:01:29.242Z,86.55
2018-01-10T22:02:10.161Z,86.78
2018-01-10T22:02:51.373Z,86.16
2018-01-10T22:03:32.347Z,87.35
2018-01-10T22:04:14.394Z,87.26
2018-01-10T22:06:02.385Z,86.26
2018-01-10T22:06:43.042Z,87.16
2018-01-10T22:07:24.941Z,87.16
2018-01-10T22:08:05.608Z,86.88
2018-01-10T22:08:46.543Z,87.12
2018-01-10T22:09:35.246Z,87.07
2018-01-10T22:10:17.232Z,87.31
2018-01-10T22:10:58.964Z,87.5
2018-01-10T22:11:41.218Z,87.4
2018-01-10T22:12:24.318Z,87.74
2018-01-10T22:13:07.617Z,87.54
2018-01-10T22:13:48.389Z,87.26
2018-01-10T22:14:31.357Z,86.98
2018-01-10T22:15:11.438Z,86.98
2018-01-10T22:15:52.903Z,86.88
2018-01-10T22:16:35.244Z,86.4
2018-01-10T22:18:35.619Z,87.16
2018-01-10T22:19:16.961Z,87.16
2018-01-10T22:19:58.029Z,87.83
2018-01-10T22:20:38.830Z,87.6
2018-01-10T22:21:20.520Z,87.6
2018-01-10T22:22:01.730Z,87.98
2018-01-10T22:22:42.670Z,87.4
2018-01-10T22:23:23.266Z,87.98
2018-01-10T22:24:03.799Z,87.6
2018-01-10T22:24:44.295Z,87.79
2018-01-10T22:25:24.849Z,88.07
2018-01-10T22:26:05.400Z,87.79
2018-01-10T22:26:46.060Z,87.79
2018-01-10T22:27:26.551Z,87.31
2018-01-10T22:28:07.112Z,87.6
2018-01-10T22:28:47.675Z,87.5
2018-01-10T22:29:28.161Z,87.5
2018-01-10T22:30:08.702Z,87.74
2018-01-10T22:30:49.240Z,87.31
2018-01-10T22:31:29.816Z,87.4
2018-01-10T22:32:10.326Z,87.5
2018-01-10T22:32:50.941Z,87.79
2018-01-10T22:33:31.430Z,87.6
2018-01-10T22:34:12.080Z,87.6
2018-01-10T22:34:52.658Z,88.07
2018-01-10T22:35:33.184Z,87.79
2018-01-10T22:36:13.738Z,87.88
2018-01-10T22:36:54.233Z,88.07
2018-01-10T22:37:34.818Z,87.98
2018-01-10T22:38:15.320Z,87.5
2018-01-10T22:38:55.853Z,87.4
2018-01-10T22:39:36.374Z,87.4
2018-01-10T22:40:16.929Z,87.5
2018-01-10T22:40:57.457Z,87.12
2018-01-10T22:41:38.035Z,87.5
2018-01-10T22:42:18.536Z,87.5
2018-01-10T22:42:59.086Z,88.07
2018-01-10T22:43:39.614Z,87.69
2018-01-10T22:44:20.128Z,87.98
2018-01-10T22:45:00.644Z,88.03
2018-01-10T22:45:41.205Z,88.45
2018-01-10T22:46:21.753Z,88.55
2018-01-10T22:47:02.279Z,88.26
2018-01-10T22:47:42.830Z,88.55